Lebanon, Oregon
Current Conditions -  °F | °C
As of 9:35 AM on Thursday 23 Oct 2014 (Local Time) from KCVO Reporting Station
Overcast Overcast  
Wind Chill: 14°   Ceiling: 9000
Heat Index: 14°   Visibility: 10mi
Dew Point: 12°   Wind: 9mph
Humidity: 88%   Direction: 190°S
Pressure: 29.87"   Gusts: NA
Location:  44.54°N, 122.9°W
Report Text: KCVO 231635Z AUTO 19008KT 10SM FEW050 OVC090 14/12 A2987 RMK AO1
Loading
Personal Weather Stations






























Interactive Weather Map
Tropical Storm Tracking
New forecast layout! Learn more

10-Day Weather Forecast

Advertisements
Track Severe Weather on mobile